createdAt,value
2023-11-23T00:02:24.136Z,7.00
2023-11-23T00:04:53.582Z,6.83
2023-11-23T00:07:25.033Z,7.57
2023-11-23T00:09:56.370Z,6.77
2023-11-23T00:12:26.194Z,7.53
2023-11-23T00:14:56.001Z,6.87
2023-11-23T00:17:25.727Z,7.20
2023-11-23T00:19:55.963Z,7.17
2023-11-23T00:22:25.840Z,7.47
2023-11-23T00:24:57.109Z,7.40
2023-11-23T00:27:27.419Z,7.83
2023-11-23T00:29:57.270Z,8.30
2023-11-23T00:32:26.934Z,8.90
2023-11-23T00:34:56.608Z,8.27
2023-11-23T00:37:26.557Z,8.83
2023-11-23T00:39:58.599Z,8.20
2023-11-23T00:42:30.332Z,8.90
2023-11-23T00:45:00.357Z,10.10
2023-11-23T00:47:30.108Z,9.10
2023-11-23T00:50:00.217Z,9.67
2023-11-23T00:52:30.065Z,10.50
2023-11-23T00:55:01.186Z,10.50
2023-11-23T00:57:32.320Z,9.57
2023-11-23T01:00:08.037Z,10.07
2023-11-23T01:02:40.022Z,9.53
2023-11-23T01:05:12.205Z,10.10
2023-11-23T01:07:42.107Z,9.37
2023-11-23T01:10:13.551Z,9.43
2023-11-23T01:12:44.399Z,9.77
2023-11-23T01:15:14.878Z,9.00
2023-11-23T01:17:44.983Z,8.57
2023-11-23T01:20:15.392Z,7.83
2023-11-23T01:22:45.490Z,7.63
2023-11-23T01:25:16.836Z,7.73
2023-11-23T01:27:46.446Z,7.97
2023-11-23T01:30:16.397Z,6.93
2023-11-23T01:32:46.756Z,8.00
2023-11-23T01:35:16.696Z,7.60
2023-11-23T01:37:46.406Z,7.73
2023-11-23T01:40:24.921Z,7.27
2023-11-23T01:42:55.451Z,7.70
2023-11-23T01:45:25.552Z,7.37
2023-11-23T01:47:55.543Z,6.77
2023-11-23T01:50:26.457Z,7.10
2023-11-23T01:52:56.342Z,6.30
2023-11-23T01:55:28.451Z,6.30
2023-11-23T01:58:00.967Z,5.83
2023-11-23T02:00:31.919Z,6.30
2023-11-23T02:03:02.484Z,5.93
2023-11-23T02:05:33.077Z,5.80
2023-11-23T02:08:02.684Z,5.90
2023-11-23T02:10:33.620Z,6.00
2023-11-23T02:13:04.568Z,6.27
2023-11-23T02:15:38.762Z,6.07
2023-11-23T02:18:10.136Z,5.70
2023-11-23T02:20:40.786Z,5.07
2023-11-23T02:23:10.569Z,5.60
2023-11-23T02:25:42.043Z,5.77
2023-11-23T02:28:12.238Z,6.10
2023-11-23T02:30:42.152Z,6.00
2023-11-23T02:33:12.685Z,6.30
2023-11-23T02:35:42.387Z,5.53
2023-11-23T02:38:12.709Z,6.10
2023-11-23T02:40:43.436Z,5.70
2023-11-23T02:43:13.553Z,5.73
2023-11-23T02:45:43.703Z,5.30
2023-11-23T02:48:13.585Z,5.47
2023-11-23T02:50:43.152Z,5.50
2023-11-23T02:53:29.210Z,5.43
2023-11-23T02:56:00.651Z,5.60
2023-11-23T02:58:30.967Z,5.37
2023-11-23T03:01:00.795Z,6.13
2023-11-23T03:03:31.395Z,5.60
2023-11-23T03:06:02.287Z,6.03
2023-11-23T03:08:32.263Z,6.17
2023-11-23T03:11:06.275Z,6.07
2023-11-23T03:13:36.209Z,6.10
2023-11-23T03:16:06.382Z,5.83
2023-11-23T03:18:36.288Z,5.90
2023-11-23T03:21:06.794Z,6.27
2023-11-23T03:23:36.578Z,5.90
2023-11-23T03:26:07.904Z,6.10
2023-11-23T03:28:37.532Z,5.63
2023-11-23T03:31:09.309Z,6.90
2023-11-23T03:33:38.896Z,6.60
2023-11-23T03:36:09.631Z,6.37
2023-11-23T03:38:40.344Z,6.60
2023-11-23T03:41:12.917Z,6.60
2023-11-23T03:43:42.655Z,6.77
2023-11-23T03:46:12.886Z,6.30
2023-11-23T03:48:43.925Z,6.40
2023-11-23T03:51:15.580Z,6.27
2023-11-23T03:53:45.718Z,6.97
2023-11-23T03:56:17.642Z,7.10
2023-11-23T03:58:49.289Z,6.70
2023-11-23T04:01:20.286Z,7.40
2023-11-23T04:03:50.187Z,8.00
2023-11-23T04:06:22.937Z,8.03
2023-11-23T04:08:52.801Z,7.77
2023-11-23T04:11:26.742Z,7.97
2023-11-23T04:13:58.145Z,7.57
2023-11-23T04:16:27.937Z,7.80
2023-11-23T04:18:57.733Z,8.00
2023-11-23T04:21:28.190Z,7.90
2023-11-23T04:24:00.798Z,7.50
2023-11-23T04:26:33.183Z,8.07
2023-11-23T04:29:02.772Z,8.90
2023-11-23T04:31:32.621Z,11.80
2023-11-23T04:34:02.998Z,16.77
2023-11-23T04:36:34.213Z,15.70
2023-11-23T04:39:04.118Z,13.37
2023-11-23T04:41:38.232Z,13.37
2023-11-23T04:44:07.814Z,14.40
2023-11-23T04:46:37.738Z,17.90
2023-11-23T04:49:07.446Z,15.57
2023-11-23T04:51:37.039Z,14.10
2023-11-23T04:54:07.298Z,12.53
2023-11-23T04:56:39.937Z,10.90
2023-11-23T04:59:09.547Z,9.60
2023-11-23T05:01:39.506Z,10.07
2023-11-23T05:04:09.715Z,9.43
2023-11-23T05:06:40.016Z,9.40
2023-11-23T05:09:10.069Z,9.73
2023-11-23T05:11:41.323Z,9.33
2023-11-23T05:14:11.271Z,8.33
2023-11-23T05:16:41.373Z,8.13
2023-11-23T05:19:11.119Z,8.20
2023-11-23T05:21:40.819Z,7.50
2023-11-23T05:24:11.309Z,7.60
2023-11-23T05:26:42.396Z,7.77
2023-11-23T05:29:12.501Z,7.53
2023-11-23T05:31:44.168Z,8.47
2023-11-23T05:34:13.873Z,8.40
2023-11-23T05:36:43.767Z,7.70
2023-11-23T05:39:14.500Z,8.10
2023-11-23T05:41:46.049Z,9.30
2023-11-23T05:44:15.993Z,9.17
2023-11-23T05:46:48.069Z,10.33
2023-11-23T05:49:22.646Z,9.87
2023-11-23T05:51:52.941Z,9.43
2023-11-23T05:54:23.142Z,9.93
2023-11-23T05:56:54.831Z,10.30
2023-11-23T05:59:24.583Z,10.00
2023-11-23T06:01:54.127Z,9.87
2023-11-23T06:04:24.090Z,10.40
2023-11-23T06:06:54.740Z,10.60
2023-11-23T06:09:24.460Z,10.13
2023-11-23T06:11:57.681Z,10.40
2023-11-23T06:14:27.244Z,10.13
2023-11-23T06:16:56.961Z,10.23
2023-11-23T06:19:29.222Z,9.90
2023-11-23T06:21:58.735Z,9.80
2023-11-23T06:24:28.568Z,9.40
2023-11-23T06:26:59.861Z,9.10
2023-11-23T06:29:29.907Z,8.80
2023-11-23T06:32:01.914Z,9.07
2023-11-23T06:34:33.302Z,8.97
2023-11-23T06:37:03.136Z,8.30
2023-11-23T06:39:33.086Z,8.17
2023-11-23T06:42:04.099Z,9.30
2023-11-23T06:44:33.889Z,9.23
2023-11-23T06:47:03.739Z,8.43
2023-11-23T06:49:33.639Z,8.20
2023-11-23T06:52:04.250Z,7.40
2023-11-23T06:54:34.508Z,7.37
2023-11-23T06:57:06.150Z,7.40
2023-11-23T06:59:37.295Z,6.97
2023-11-23T07:02:07.770Z,7.03
2023-11-23T07:04:38.203Z,7.07
2023-11-23T07:07:08.452Z,11.90
2023-11-23T07:09:42.589Z,10.03
2023-11-23T07:12:14.156Z,9.00
2023-11-23T07:14:51.430Z,8.57
2023-11-23T07:17:27.489Z,8.97
2023-11-23T07:20:00.353Z,8.63
2023-11-23T07:22:32.292Z,8.17
2023-11-23T07:25:04.271Z,7.80
2023-11-23T07:27:35.605Z,9.33
2023-11-23T07:30:07.536Z,8.17
2023-11-23T07:32:37.762Z,8.27
2023-11-23T07:35:08.522Z,7.83
2023-11-23T07:37:38.447Z,7.20
2023-11-23T07:40:15.044Z,6.40
2023-11-23T07:42:46.752Z,6.40
2023-11-23T07:45:18.253Z,7.37
2023-11-23T07:47:48.476Z,5.30
2023-11-23T07:50:18.258Z,5.70
2023-11-23T07:52:48.361Z,4.40
2023-11-23T07:55:21.052Z,5.60
2023-11-23T07:57:52.838Z,4.90
2023-11-23T08:00:25.797Z,5.00
2023-11-23T08:02:56.571Z,5.07
2023-11-23T08:05:27.352Z,6.17
2023-11-23T08:08:00.959Z,5.60
2023-11-23T08:10:30.874Z,5.53
2023-11-23T08:13:03.653Z,5.27
2023-11-23T08:15:34.193Z,5.33
2023-11-23T08:18:08.311Z,5.50
2023-11-23T08:20:39.356Z,6.37
2023-11-23T08:23:09.764Z,6.13
2023-11-23T08:25:41.216Z,6.07
2023-11-23T08:28:12.350Z,6.40
2023-11-23T08:30:42.102Z,6.53
2023-11-23T08:33:11.904Z,6.27
2023-11-23T08:35:42.094Z,6.53
2023-11-23T08:38:13.131Z,6.63
2023-11-23T08:40:43.158Z,6.03
2023-11-23T08:43:15.108Z,7.07
2023-11-23T08:45:45.234Z,6.30
2023-11-23T08:48:15.379Z,6.83
2023-11-23T08:50:45.163Z,6.27
2023-11-23T08:53:16.615Z,5.80
2023-11-23T08:55:49.809Z,5.80
2023-11-23T08:58:20.838Z,6.20
2023-11-23T09:00:50.661Z,6.97
2023-11-23T09:03:20.848Z,5.63
2023-11-23T09:05:50.933Z,5.90
2023-11-23T09:08:20.718Z,6.10
2023-11-23T09:10:50.417Z,5.63
2023-11-23T09:13:21.665Z,6.17
2023-11-23T09:15:51.374Z,5.80
2023-11-23T09:18:23.909Z,4.90
2023-11-23T09:20:54.084Z,5.00
2023-11-23T09:23:24.655Z,5.50
2023-11-23T09:25:54.302Z,5.30
2023-11-23T09:28:27.497Z,5.07
2023-11-23T09:30:57.430Z,5.20
2023-11-23T09:33:28.144Z,5.30
2023-11-23T09:35:58.281Z,5.67
2023-11-23T09:38:28.182Z,5.70
2023-11-23T09:41:01.781Z,6.43
2023-11-23T09:43:33.660Z,6.53
2023-11-23T09:46:04.841Z,6.93
2023-11-23T09:48:40.890Z,6.73
2023-11-23T09:51:12.409Z,5.63
2023-11-23T09:53:48.158Z,5.60
2023-11-23T09:56:19.496Z,5.80
2023-11-23T09:58:51.731Z,5.50
2023-11-23T10:01:22.013Z,5.20
2023-11-23T10:03:57.519Z,6.17
2023-11-23T10:06:27.302Z,5.67
2023-11-23T10:08:56.960Z,5.60
2023-11-23T10:11:29.834Z,5.73
2023-11-23T10:14:01.177Z,5.90
2023-11-23T10:16:35.299Z,6.57
2023-11-23T10:19:06.800Z,6.27
2023-11-23T10:21:36.589Z,5.90
2023-11-23T10:24:10.035Z,6.60
2023-11-23T10:26:39.694Z,7.07
2023-11-23T10:29:12.237Z,6.07
2023-11-23T10:31:41.954Z,5.23
2023-11-23T10:34:13.618Z,6.40
2023-11-23T10:36:45.359Z,5.57
2023-11-23T10:39:17.791Z,6.07
2023-11-23T10:41:48.170Z,6.00
2023-11-23T10:44:20.098Z,5.80
2023-11-23T10:46:52.041Z,5.67
2023-11-23T10:49:22.781Z,5.50
2023-11-23T10:51:53.329Z,6.10
2023-11-23T10:54:24.016Z,5.43
2023-11-23T10:56:56.471Z,5.27
2023-11-23T10:59:29.333Z,5.23
2023-11-23T11:02:00.488Z,5.37
2023-11-23T11:04:32.463Z,6.00
2023-11-23T11:07:05.442Z,5.63
2023-11-23T11:09:37.079Z,6.20
2023-11-23T11:12:14.582Z,5.60
2023-11-23T11:14:55.489Z,5.93
2023-11-23T11:17:38.163Z,5.83
2023-11-23T11:20:12.268Z,6.10
2023-11-23T11:22:42.490Z,5.70
2023-11-23T11:25:16.505Z,6.10
2023-11-23T11:27:47.272Z,5.90
2023-11-23T11:30:25.823Z,5.80
2023-11-23T11:32:55.682Z,6.03
2023-11-23T11:35:30.363Z,6.30
2023-11-23T11:38:02.136Z,6.07
2023-11-23T11:40:31.859Z,6.57
2023-11-23T11:43:01.763Z,6.00
2023-11-23T11:45:32.831Z,6.30
2023-11-23T11:48:03.880Z,7.00
2023-11-23T11:50:33.758Z,6.60
2023-11-23T11:53:03.776Z,7.03
2023-11-23T11:55:33.608Z,6.60
2023-11-23T11:58:07.614Z,6.70
2023-11-23T12:00:40.704Z,7.20
2023-11-23T12:03:10.602Z,6.73
2023-11-23T12:05:46.765Z,7.13
2023-11-23T12:08:16.889Z,7.47
2023-11-23T12:10:46.809Z,6.77
2023-11-23T12:13:26.566Z,6.57
2023-11-23T12:15:57.790Z,7.07
2023-11-23T12:18:36.815Z,7.37
2023-11-23T12:21:15.421Z,7.47
2023-11-23T12:23:46.688Z,7.10
2023-11-23T12:26:16.996Z,7.90
2023-11-23T12:28:49.790Z,6.87
2023-11-23T12:31:23.074Z,6.97
2023-11-23T12:33:52.853Z,7.07
2023-11-23T12:36:22.733Z,6.90
2023-11-23T12:38:52.855Z,7.15
2023-11-23T12:41:26.329Z,6.82
2023-11-23T12:44:05.271Z,7.07
2023-11-23T12:46:36.523Z,7.05
2023-11-23T12:49:06.615Z,6.90
2023-11-23T12:51:40.848Z,7.63
2023-11-23T12:54:10.674Z,6.35
2023-11-23T12:56:40.772Z,7.10
2023-11-23T12:59:10.573Z,7.32
2023-11-23T13:01:41.761Z,6.65
2023-11-23T13:04:11.805Z,7.47
2023-11-23T13:06:41.600Z,7.10
2023-11-23T13:09:17.392Z,7.38
2023-11-23T13:11:47.227Z,6.90
2023-11-23T13:14:17.635Z,6.65
2023-11-23T13:16:48.677Z,7.00
2023-11-23T13:19:29.185Z,7.38
2023-11-23T13:22:03.497Z,6.65
2023-11-23T13:24:35.836Z,6.90
2023-11-23T13:27:06.063Z,6.65
2023-11-23T13:29:36.774Z,6.57
2023-11-23T13:32:08.738Z,6.90
2023-11-23T13:34:39.998Z,6.90
2023-11-23T13:37:12.257Z,7.30
2023-11-23T13:39:42.263Z,6.93
2023-11-23T13:42:12.010Z,7.30
2023-11-23T13:44:41.804Z,7.20
2023-11-23T13:47:14.369Z,6.97
2023-11-23T13:49:44.383Z,7.22
2023-11-23T13:52:14.198Z,7.60
2023-11-23T13:54:45.191Z,7.10
2023-11-23T13:57:16.850Z,7.15
2023-11-23T13:59:46.708Z,7.15
2023-11-23T14:02:18.050Z,7.75
2023-11-23T14:04:48.379Z,7.68
2023-11-23T14:07:18.704Z,7.40
2023-11-23T14:09:48.719Z,7.45
2023-11-23T14:12:18.242Z,6.78
2023-11-23T14:14:49.595Z,7.38
2023-11-23T14:17:21.023Z,7.68
2023-11-23T14:19:52.868Z,7.25
2023-11-23T14:22:22.798Z,7.47
2023-11-23T14:24:52.504Z,7.32
2023-11-23T14:27:22.132Z,7.10
2023-11-23T14:29:52.037Z,7.43
2023-11-23T14:32:23.883Z,8.57
2023-11-23T14:34:54.006Z,7.20
2023-11-23T14:37:24.540Z,7.65
2023-11-23T14:39:54.039Z,7.18
2023-11-23T14:42:24.217Z,7.75
2023-11-23T14:44:55.404Z,8.30
2023-11-23T14:47:28.995Z,7.55
2023-11-23T14:49:58.740Z,7.90
2023-11-23T14:52:28.526Z,8.20
2023-11-23T14:54:58.467Z,8.98
2023-11-23T14:57:30.331Z,8.10
2023-11-23T15:00:01.664Z,8.50
2023-11-23T15:02:33.128Z,8.35
2023-11-23T15:05:02.814Z,8.80
2023-11-23T15:07:32.422Z,9.13
2023-11-23T15:10:03.999Z,9.05
2023-11-23T15:12:33.720Z,8.63
2023-11-23T15:15:03.408Z,9.65
2023-11-23T15:17:34.522Z,9.40
2023-11-23T15:20:07.126Z,9.60
2023-11-23T15:22:37.036Z,10.05
2023-11-23T15:25:10.293Z,11.32
2023-11-23T15:27:41.480Z,12.27
2023-11-23T15:30:13.019Z,11.70
2023-11-23T15:32:44.280Z,14.80
2023-11-23T15:35:14.324Z,17.70
2023-11-23T15:37:44.212Z,16.77
2023-11-23T15:40:18.383Z,17.07
2023-11-23T15:42:49.337Z,15.43
2023-11-23T15:45:19.487Z,16.27
2023-11-23T15:47:50.575Z,16.00
2023-11-23T15:50:23.319Z,16.93
2023-11-23T15:52:56.056Z,19.77
2023-11-23T15:55:26.666Z,18.03
2023-11-23T15:57:56.188Z,20.50
2023-11-23T16:00:26.639Z,19.90
2023-11-23T16:02:59.009Z,19.93
2023-11-23T16:05:30.958Z,18.63
2023-11-23T16:08:00.817Z,19.57
2023-11-23T16:10:30.274Z,18.83
2023-11-23T16:12:59.671Z,17.63
2023-11-23T16:15:29.214Z,17.53
2023-11-23T16:18:00.463Z,17.43
2023-11-23T16:20:30.336Z,16.63
2023-11-23T16:23:00.285Z,18.70
2023-11-23T16:25:30.366Z,19.83
2023-11-23T16:27:59.980Z,21.27
2023-11-23T16:30:29.935Z,22.67
2023-11-23T16:33:03.228Z,22.87
2023-11-23T16:35:33.415Z,22.53
2023-11-23T16:40:59.445Z,22.43
2023-11-23T16:43:29.208Z,21.97
2023-11-23T16:46:05.004Z,20.67
2023-11-23T16:48:45.719Z,21.37
2023-11-23T16:51:19.417Z,23.10
2023-11-23T16:53:51.499Z,22.00
2023-11-23T16:56:22.535Z,22.13
2023-11-23T16:58:53.358Z,23.20
2023-11-23T17:01:24.006Z,20.87
2023-11-23T17:03:56.891Z,21.50
2023-11-23T17:06:27.402Z,25.43
2023-11-23T17:08:57.178Z,30.73
2023-11-23T17:11:27.311Z,30.77
2023-11-23T17:13:57.427Z,28.10
2023-11-23T17:16:27.175Z,28.23
2023-11-23T17:19:10.147Z,27.97
2023-11-23T17:21:49.348Z,29.27
2023-11-23T17:24:24.892Z,32.10
2023-11-23T17:26:56.453Z,36.77
2023-11-23T17:29:26.526Z,36.57
2023-11-23T17:31:58.949Z,32.83
2023-11-23T17:34:30.248Z,29.33
2023-11-23T17:37:00.635Z,30.00
2023-11-23T17:39:31.542Z,38.63
2023-11-23T17:42:01.208Z,36.90
2023-11-23T17:44:30.901Z,38.53
2023-11-23T17:47:01.320Z,31.37
2023-11-23T17:49:32.466Z,24.77
2023-11-23T17:52:03.294Z,23.73
2023-11-23T17:54:33.864Z,23.47
2023-11-23T17:57:05.954Z,24.33
2023-11-23T17:59:46.955Z,26.60
2023-11-23T18:02:22.502Z,25.00
2023-11-23T18:05:01.335Z,25.93
2023-11-23T18:07:31.355Z,29.47
2023-11-23T18:10:01.058Z,30.60
2023-11-23T18:12:30.911Z,30.93
2023-11-23T18:15:00.789Z,31.37
2023-11-23T18:17:31.054Z,31.00
2023-11-23T18:20:02.482Z,30.33
2023-11-23T18:22:33.235Z,28.43
2023-11-23T18:25:03.531Z,30.30
2023-11-23T18:27:33.115Z,31.70
2023-11-23T18:30:02.630Z,31.67
2023-11-23T18:32:33.454Z,30.70
2023-11-23T18:35:04.725Z,28.80
2023-11-23T18:37:34.532Z,30.60
2023-11-23T18:40:14.610Z,30.63
2023-11-23T18:42:47.381Z,31.40
2023-11-23T18:45:17.926Z,29.70
2023-11-23T18:47:48.205Z,29.93
2023-11-23T18:50:19.588Z,29.13
2023-11-23T18:52:49.468Z,29.07
2023-11-23T18:55:35.255Z,30.00
2023-11-23T18:58:18.302Z,34.30
2023-11-23T19:00:55.348Z,35.77
2023-11-23T19:03:28.562Z,30.43
2023-11-23T19:06:25.512Z,30.80
2023-11-23T19:09:16.882Z,35.97
2023-11-23T19:11:47.645Z,40.67
2023-11-23T19:14:17.325Z,40.07
2023-11-23T19:17:11.544Z,43.10
2023-11-23T19:19:41.665Z,37.93
2023-11-23T19:22:13.542Z,37.00
2023-11-23T19:24:43.934Z,32.93
2023-11-23T19:27:14.311Z,33.77
2023-11-23T19:29:48.134Z,33.93
2023-11-23T19:32:30.892Z,35.30
2023-11-23T19:35:01.329Z,32.50
2023-11-23T19:37:36.146Z,30.13
2023-11-23T19:40:07.639Z,34.67
2023-11-23T19:42:39.746Z,32.77
2023-11-23T19:45:12.033Z,33.03
2023-11-23T19:47:42.281Z,44.43
2023-11-23T19:50:13.099Z,44.40
2023-11-23T19:52:45.580Z,34.67
2023-11-23T19:55:15.995Z,31.57
2023-11-23T19:57:45.677Z,29.90
2023-11-23T20:00:16.422Z,29.30
2023-11-23T20:02:47.162Z,25.23
2023-11-23T20:05:18.625Z,24.43
2023-11-23T20:07:49.580Z,23.17
2023-11-23T20:10:23.065Z,28.83
2023-11-23T20:12:52.978Z,30.90
2023-11-23T20:15:23.333Z,31.83
2023-11-23T20:17:53.301Z,49.50
2023-11-23T20:20:22.821Z,47.87
2023-11-23T20:22:54.479Z,35.40
2023-11-23T20:25:25.712Z,26.87
2023-11-23T20:27:55.574Z,28.63
2023-11-23T20:30:26.637Z,32.40
2023-11-23T20:32:56.536Z,21.80
2023-11-23T20:35:29.470Z,21.73
2023-11-23T20:38:01.256Z,22.20
2023-11-23T20:40:32.062Z,22.10
2023-11-23T20:43:03.925Z,24.53
2023-11-23T20:45:36.541Z,22.13
2023-11-23T20:48:06.477Z,22.13
2023-11-23T20:50:36.240Z,20.63
2023-11-23T20:53:10.042Z,18.50
2023-11-23T20:55:40.554Z,17.63
2023-11-23T20:58:10.544Z,15.33
2023-11-23T21:00:40.719Z,15.87
2023-11-23T21:03:11.366Z,15.30
2023-11-23T21:05:41.958Z,15.97
2023-11-23T21:08:14.433Z,15.00
2023-11-23T21:10:45.515Z,16.90
2023-11-23T21:13:17.029Z,17.77
2023-11-23T21:15:46.747Z,16.87
2023-11-23T21:18:16.949Z,17.63
2023-11-23T21:20:46.965Z,16.53
2023-11-23T21:23:18.427Z,15.27
2023-11-23T21:25:48.388Z,15.23
2023-11-23T21:28:17.937Z,15.87
2023-11-23T21:30:48.782Z,16.10
2023-11-23T21:33:19.521Z,16.43
2023-11-23T21:35:49.429Z,16.70
2023-11-23T21:38:20.428Z,16.73
2023-11-23T21:40:53.045Z,21.53
2023-11-23T21:43:22.863Z,24.33
2023-11-23T21:45:53.133Z,21.53
2023-11-23T21:48:22.649Z,22.50
2023-11-23T21:50:54.150Z,29.63
2023-11-23T21:53:26.403Z,21.90
2023-11-23T21:55:57.343Z,23.90
2023-11-23T21:58:27.441Z,25.30
2023-11-23T22:00:57.039Z,30.80
2023-11-23T22:03:29.435Z,30.57
2023-11-23T22:05:59.864Z,27.90
2023-11-23T22:08:31.615Z,29.63
2023-11-23T22:11:02.461Z,24.53
2023-11-23T22:13:32.276Z,17.63
2023-11-23T22:16:03.222Z,21.33
2023-11-23T22:18:33.465Z,18.70
2023-11-23T22:21:05.812Z,16.67
2023-11-23T22:23:39.189Z,17.30
2023-11-23T22:26:09.772Z,17.67
2023-11-23T22:28:40.161Z,17.73
2023-11-23T22:31:14.652Z,17.63
2023-11-23T22:33:47.817Z,18.43
2023-11-23T22:36:20.263Z,17.43
2023-11-23T22:38:55.883Z,17.87
2023-11-23T22:41:29.801Z,17.57
2023-11-23T22:44:01.364Z,17.70
2023-11-23T22:46:33.520Z,21.30
2023-11-23T22:49:03.073Z,21.77
2023-11-23T22:51:33.289Z,21.70
2023-11-23T22:54:06.476Z,21.77
2023-11-23T22:56:36.752Z,20.57
2023-11-23T22:59:06.430Z,19.53
2023-11-23T23:01:39.031Z,20.43
2023-11-23T23:04:12.014Z,21.20
2023-11-23T23:06:43.723Z,21.17
2023-11-23T23:09:17.349Z,20.70
2023-11-23T23:11:50.881Z,20.83
2023-11-23T23:14:20.897Z,23.40
2023-11-23T23:16:51.886Z,20.40
2023-11-23T23:19:21.769Z,19.47
2023-11-23T23:21:52.624Z,19.03
2023-11-23T23:24:23.971Z,17.03
2023-11-23T23:26:54.466Z,17.13
2023-11-23T23:29:27.160Z,16.97
2023-11-23T23:31:57.566Z,16.40
2023-11-23T23:34:29.161Z,16.50
2023-11-23T23:36:59.269Z,17.80
2023-11-23T23:39:31.506Z,15.40
2023-11-23T23:42:01.620Z,16.30
2023-11-23T23:44:34.409Z,15.57
2023-11-23T23:47:05.690Z,15.83
2023-11-23T23:49:36.192Z,19.40
2023-11-23T23:52:08.388Z,19.10
2023-11-23T23:54:40.683Z,17.67
2023-11-23T23:57:11.871Z,20.63
2023-11-23T23:59:41.999Z,17.67
